Time;durP1;ratioP1;P1;durP2;ratioP2;P2;SDS_P1;SDS_P2;PMS_P1;PMS_P2;Temp;Humidity;BMP_temperature;BMP_pressure;BME280_temperature;BME280_humidity;BME280_pressure;Samples;Min_cycle;Max_cycle;Signal;HPM_P1;HPM_P2
2023/05/29 00:01:26;;;;;;;11.27;3.80;;;;;;;;;;5003798;28;20133;-79
2023/05/29 00:03:52;;;;;;;11.50;3.30;;;;;;;;;;5006808;28;20139;-79
2023/05/29 00:06:21;;;;;;;12.57;3.90;;;;;;;;;;5006503;28;20064;-78
2023/05/29 00:08:47;;;;;;;10.27;3.78;;;;;;;;;;5011583;28;20054;-79
2023/05/29 00:11:13;;;;;;;18.70;3.75;;;;;;;;;;4996143;28;20046;-79
2023/05/29 00:13:40;;;;;;;11.32;3.22;;;;;;;;;;5015242;28;20050;-79
2023/05/29 00:16:06;;;;;;;11.55;3.58;;;;;;;;;;5011637;28;20200;-79
2023/05/29 00:18:32;;;;;;;13.25;4.05;;;;;;;;;;5015592;28;20411;-78
2023/05/29 00:20:58;;;;;;;14.60;3.67;;;;;;;;;;4995791;28;20133;-79
2023/05/29 00:23:24;;;;;;;13.35;3.65;;;;;;;;;;5006710;28;20081;-79
2023/05/29 00:25:50;;;;;;;15.25;3.97;;;;;;;;;;5007967;28;20053;-79
2023/05/29 00:28:16;;;;;;;12.00;3.25;;;;;;;;;;4999909;28;20084;-79
2023/05/29 00:30:42;;;;;;;12.02;3.40;;;;;;;;;;4993563;28;20462;-79
2023/05/29 00:33:08;;;;;;;9.85;3.88;;;;;;;;;;5005037;28;20334;-78
2023/05/29 00:35:34;;;;;;;12.25;3.65;;;;;;;;;;5006099;28;20046;-79
2023/05/29 00:38:00;;;;;;;15.50;3.45;;;;;;;;;;5002908;28;20100;-78
2023/05/29 00:40:27;;;;;;;11.18;3.45;;;;;;;;;;5003710;28;20050;-79
2023/05/29 00:42:53;;;;;;;12.00;3.60;;;;;;;;;;5004440;28;20553;-79
2023/05/29 00:45:19;;;;;;;13.20;3.47;;;;;;;;;;5004237;28;20058;-79
2023/05/29 00:47:46;;;;;;;15.45;3.70;;;;;;;;;;5002017;28;20088;-79
2023/05/29 00:50:13;;;;;;;10.13;2.90;;;;;;;;;;5008651;28;20045;-79
2023/05/29 00:52:40;;;;;;;10.85;3.47;;;;;;;;;;5003972;28;20120;-79
2023/05/29 00:55:06;;;;;;;9.60;3.28;;;;;;;;;;5004701;28;20708;-79
2023/05/29 00:57:34;;;;;;;13.45;3.25;;;;;;;;;;5002551;28;20061;-79
2023/05/29 01:00:00;;;;;;;11.82;3.47;;;;;;;;;;5004337;28;20513;-78
2023/05/29 01:02:29;;;;;;;11.68;3.30;;;;;;;;;;5004556;28;20044;-79
2023/05/29 01:04:55;;;;;;;12.27;3.20;;;;;;;;;;5003227;28;20535;-79
2023/05/29 01:07:21;;;;;;;13.88;3.28;;;;;;;;;;5008612;28;20042;-79
2023/05/29 01:09:47;;;;;;;9.35;3.38;;;;;;;;;;5005036;28;20053;-79
2023/05/29 01:12:24;;;;;;;11.25;3.00;;;;;;;;;;5022259;28;20049;-79
2023/05/29 01:15:09;;;;;;;10.85;3.35;;;;;;;;;;5003391;28;20504;-79
2023/05/29 01:17:52;;;;;;;10.40;3.20;;;;;;;;;;5006505;28;20049;-79
2023/05/29 01:20:37;;;;;;;8.98;3.72;;;;;;;;;;5010997;28;20050;-79
2023/05/29 01:23:21;;;;;;;9.77;3.10;;;;;;;;;;5014813;28;20397;-79
2023/05/29 01:26:03;;;;;;;11.63;3.53;;;;;;;;;;4999750;28;20104;-79
2023/05/29 01:28:32;;;;;;;13.10;3.10;;;;;;;;;;5011881;28;20077;-79
2023/05/29 01:31:01;;;;;;;12.70;3.70;;;;;;;;;;4999367;28;20042;-79
2023/05/29 01:33:27;;;;;;;10.82;2.92;;;;;;;;;;5000766;28;20038;-79
2023/05/29 01:35:53;;;;;;;14.75;4.07;;;;;;;;;;5004666;28;20132;-79
2023/05/29 01:38:19;;;;;;;11.43;3.80;;;;;;;;;;4999854;28;20049;-79
2023/05/29 01:40:46;;;;;;;10.85;3.90;;;;;;;;;;5002304;28;20037;-80
2023/05/29 01:43:13;;;;;;;9.05;3.38;;;;;;;;;;5001218;28;20069;-79
2023/05/29 01:45:39;;;;;;;10.45;3.38;;;;;;;;;;5003886;28;20509;-80
2023/05/29 01:48:05;;;;;;;11.27;3.53;;;;;;;;;;5002470;28;20100;-79
2023/05/29 01:50:31;;;;;;;10.32;3.45;;;;;;;;;;5003094;28;20034;-78
2023/05/29 01:52:57;;;;;;;14.07;3.60;;;;;;;;;;5004718;28;20045;-79
2023/05/29 01:55:23;;;;;;;15.02;3.60;;;;;;;;;;5002606;28;20165;-79
2023/05/29 01:57:50;;;;;;;12.02;3.35;;;;;;;;;;5002735;28;21685;-79
2023/05/29 02:00:18;;;;;;;8.43;3.50;;;;;;;;;;5003807;28;20568;-78
2023/05/29 02:02:45;;;;;;;9.63;3.10;;;;;;;;;;5001379;28;20514;-79
2023/05/29 02:05:11;;;;;;;12.75;3.97;;;;;;;;;;5002131;28;20046;-79
2023/05/29 02:07:37;;;;;;;13.45;3.58;;;;;;;;;;5006712;28;20046;-78
2023/05/29 02:10:06;;;;;;;10.55;3.00;;;;;;;;;;5012033;28;20494;-78
2023/05/29 02:12:32;;;;;;;11.98;3.22;;;;;;;;;;5010912;28;20049;-78
2023/05/29 02:14:58;;;;;;;10.60;3.35;;;;;;;;;;5009820;28;20052;-78
2023/05/29 02:17:24;;;;;;;12.63;3.50;;;;;;;;;;5011063;28;20046;-79
2023/05/29 02:19:51;;;;;;;12.32;3.25;;;;;;;;;;5012336;28;20049;-79
2023/05/29 02:22:18;;;;;;;10.93;3.40;;;;;;;;;;5007078;28;20413;-78
2023/05/29 02:24:44;;;;;;;11.77;3.22;;;;;;;;;;5008216;28;20046;-78
2023/05/29 02:27:10;;;;;;;11.30;3.55;;;;;;;;;;5009604;28;20045;-78
2023/05/29 02:29:36;;;;;;;14.60;3.80;;;;;;;;;;5008050;28;20045;-78
2023/05/29 02:32:03;;;;;;;11.18;3.30;;;;;;;;;;5006551;28;20128;-78
2023/05/29 02:34:29;;;;;;;11.38;3.20;;;;;;;;;;5000363;28;20080;-78
2023/05/29 02:36:55;;;;;;;10.32;4.18;;;;;;;;;;5006122;28;20608;-79
2023/05/29 02:39:21;;;;;;;15.13;4.00;;;;;;;;;;5000674;28;20458;-79
2023/05/29 02:41:47;;;;;;;8.85;3.33;;;;;;;;;;5001354;28;20041;-78
2023/05/29 02:44:13;;;;;;;14.65;3.40;;;;;;;;;;4999618;28;20560;-79
2023/05/29 02:46:39;;;;;;;10.05;3.47;;;;;;;;;;5000209;28;20054;-79
2023/05/29 02:49:05;;;;;;;8.15;3.47;;;;;;;;;;4998016;28;20049;-79
2023/05/29 02:51:32;;;;;;;10.95;3.22;;;;;;;;;;5001810;28;20037;-78
2023/05/29 02:53:58;;;;;;;12.50;3.10;;;;;;;;;;4999609;28;20054;-78
2023/05/29 02:56:24;;;;;;;10.95;3.50;;;;;;;;;;5000930;28;20061;-79
2023/05/29 02:58:52;;;;;;;10.25;3.35;;;;;;;;;;5001575;28;20046;-79
2023/05/29 03:01:19;;;;;;;7.55;2.85;;;;;;;;;;5000185;28;20100;-78
2023/05/29 03:03:45;;;;;;;7.10;3.15;;;;;;;;;;4998742;28;20046;-78
2023/05/29 03:06:12;;;;;;;13.05;3.50;;;;;;;;;;5000582;28;20057;-78
2023/05/29 03:08:40;;;;;;;11.20;3.58;;;;;;;;;;5001351;28;20053;-77
2023/05/29 03:11:10;;;;;;;10.30;3.88;;;;;;;;;;5000728;28;20046;-77
2023/05/29 03:13:36;;;;;;;10.38;3.60;;;;;;;;;;5000392;28;20042;-78
2023/05/29 03:16:03;;;;;;;12.27;3.95;;;;;;;;;;5007848;28;20046;-78
2023/05/29 03:18:29;;;;;;;16.42;3.67;;;;;;;;;;5006872;28;20588;-79
2023/05/29 03:20:55;;;;;;;8.70;3.20;;;;;;;;;;5011772;28;20054;-79
2023/05/29 03:23:21;;;;;;;9.38;3.38;;;;;;;;;;5011957;28;20394;-79
2023/05/29 03:25:47;;;;;;;9.55;3.22;;;;;;;;;;5006488;28;20057;-79
2023/05/29 03:28:13;;;;;;;8.20;3.13;;;;;;;;;;4993022;28;20066;-79
2023/05/29 03:30:39;;;;;;;12.32;3.28;;;;;;;;;;5007303;28;20524;-79
2023/05/29 03:33:05;;;;;;;9.63;3.28;;;;;;;;;;5000322;28;20088;-79
2023/05/29 03:35:31;;;;;;;8.68;3.30;;;;;;;;;;5001171;28;20172;-79
2023/05/29 03:37:57;;;;;;;12.68;3.22;;;;;;;;;;5006609;28;20045;-79
2023/05/29 03:40:23;;;;;;;8.75;3.08;;;;;;;;;;5006534;28;20480;-79
2023/05/29 03:42:50;;;;;;;9.88;3.10;;;;;;;;;;5004374;28;20163;-79
2023/05/29 03:45:16;;;;;;;10.00;3.63;;;;;;;;;;5004388;28;20140;-79
2023/05/29 03:47:42;;;;;;;8.48;3.28;;;;;;;;;;5004107;28;20045;-79
2023/05/29 03:50:09;;;;;;;9.93;3.17;;;;;;;;;;5005646;28;20045;-79
2023/05/29 03:52:35;;;;;;;9.77;3.20;;;;;;;;;;5006355;28;20577;-79
2023/05/29 03:55:14;;;;;;;9.85;3.58;;;;;;;;;;5007037;28;20128;-79
2023/05/29 03:57:40;;;;;;;16.85;3.03;;;;;;;;;;5003152;28;20058;-79
2023/05/29 04:00:11;;;;;;;11.15;3.45;;;;;;;;;;5003122;28;20077;-79
2023/05/29 04:02:40;;;;;;;9.15;3.40;;;;;;;;;;5007652;28;20549;-79
2023/05/29 04:05:06;;;;;;;10.88;3.10;;;;;;;;;;5004807;28;20520;-79
2023/05/29 04:07:33;;;;;;;13.05;3.22;;;;;;;;;;5005350;28;20041;-78
2023/05/29 04:09:59;;;;;;;11.25;3.08;;;;;;;;;;5003703;28;20134;-79
2023/05/29 04:12:25;;;;;;;9.02;2.95;;;;;;;;;;5005686;28;20172;-79
2023/05/29 04:14:51;;;;;;;13.88;3.47;;;;;;;;;;5001100;28;20045;-80
2023/05/29 04:17:17;;;;;;;9.18;3.15;;;;;;;;;;5007065;28;20115;-79
2023/05/29 04:19:44;;;;;;;10.80;3.28;;;;;;;;;;5001408;28;20072;-79
2023/05/29 04:22:13;;;;;;;11.80;3.00;;;;;;;;;;5003960;28;20050;-79
2023/05/29 04:24:39;;;;;;;9.02;2.83;;;;;;;;;;4999739;28;20056;-79
2023/05/29 04:27:05;;;;;;;8.10;3.03;;;;;;;;;;5004572;28;20433;-79
2023/05/29 04:29:34;;;;;;;8.82;3.45;;;;;;;;;;5002730;28;20042;-79
2023/05/29 04:32:03;;;;;;;7.65;3.28;;;;;;;;;;5002309;28;20053;-79
2023/05/29 04:34:30;;;;;;;11.57;3.40;;;;;;;;;;5002927;28;20497;-80
2023/05/29 04:36:58;;;;;;;12.73;3.65;;;;;;;;;;5002503;28;20666;-79
2023/05/29 04:39:24;;;;;;;13.30;3.42;;;;;;;;;;5003003;28;20045;-79
2023/05/29 04:41:51;;;;;;;8.45;3.40;;;;;;;;;;5004212;28;20064;-80
2023/05/29 04:44:17;;;;;;;6.47;3.00;;;;;;;;;;5002080;28;20173;-79
2023/05/29 04:46:44;;;;;;;9.63;3.65;;;;;;;;;;5003340;28;20046;-80
2023/05/29 04:49:10;;;;;;;14.60;3.25;;;;;;;;;;5001080;28;20048;-80
2023/05/29 04:51:40;;;;;;;7.57;3.40;;;;;;;;;;5003848;28;20161;-79
2023/05/29 04:54:06;;;;;;;11.02;3.65;;;;;;;;;;5002636;28;20042;-79
2023/05/29 04:56:32;;;;;;;10.57;3.65;;;;;;;;;;5002424;28;20042;-79
2023/05/29 04:58:58;;;;;;;11.20;3.17;;;;;;;;;;5004363;28;20148;-80
2023/05/29 05:01:25;;;;;;;9.65;3.38;;;;;;;;;;5002450;28;20136;-80
2023/05/29 05:03:55;;;;;;;11.57;3.22;;;;;;;;;;5002543;28;20064;-79
2023/05/29 05:06:21;;;;;;;8.80;3.33;;;;;;;;;;5001721;28;20487;-80
2023/05/29 05:08:47;;;;;;;8.13;3.15;;;;;;;;;;5006923;28;20045;-79
2023/05/29 05:11:14;;;;;;;13.55;3.45;;;;;;;;;;5000615;28;20046;-80
2023/05/29 05:13:40;;;;;;;8.90;3.33;;;;;;;;;;5008810;28;20066;-79
2023/05/29 05:16:06;;;;;;;10.30;2.90;;;;;;;;;;5011819;28;20050;-79
2023/05/29 05:18:32;;;;;;;9.00;3.13;;;;;;;;;;5006496;28;20061;-79
2023/05/29 05:20:58;;;;;;;10.15;3.58;;;;;;;;;;5011259;28;20037;-79
2023/05/29 05:23:24;;;;;;;8.32;2.75;;;;;;;;;;5012537;28;20054;-79
2023/05/29 05:25:50;;;;;;;9.95;3.50;;;;;;;;;;5022457;28;20049;-80
2023/05/29 05:28:16;;;;;;;10.85;3.30;;;;;;;;;;5011315;28;20055;-80
2023/05/29 05:30:42;;;;;;;13.40;3.50;;;;;;;;;;5009557;28;20085;-80
2023/05/29 05:33:11;;;;;;;10.05;2.88;;;;;;;;;;4995050;28;20060;-79
2023/05/29 05:35:37;;;;;;;10.80;2.92;;;;;;;;;;4999574;28;20458;-79
2023/05/29 05:38:03;;;;;;;9.95;2.78;;;;;;;;;;5000001;28;20124;-79
2023/05/29 05:40:30;;;;;;;7.82;2.60;;;;;;;;;;5002415;28;20140;-79
2023/05/29 05:42:58;;;;;;;7.60;2.70;;;;;;;;;;5003477;28;20061;-79
2023/05/29 05:45:24;;;;;;;8.45;2.92;;;;;;;;;;5002397;28;20058;-79
2023/05/29 05:47:51;;;;;;;9.00;2.65;;;;;;;;;;5002451;28;20050;-80
2023/05/29 05:50:17;;;;;;;9.55;3.05;;;;;;;;;;5002340;28;20038;-79
2023/05/29 05:52:43;;;;;;;11.18;3.63;;;;;;;;;;5000583;28;20103;-79
2023/05/29 05:55:09;;;;;;;10.93;3.15;;;;;;;;;;5017540;28;20434;-79
2023/05/29 05:57:36;;;;;;;9.15;3.13;;;;;;;;;;5001272;28;20108;-79
2023/05/29 06:00:07;;;;;;;12.98;3.00;;;;;;;;;;5003940;28;20045;-79
2023/05/29 06:02:33;;;;;;;11.93;3.17;;;;;;;;;;5001138;28;20046;-79
2023/05/29 06:04:59;;;;;;;9.43;3.25;;;;;;;;;;5000680;28;20081;-79
2023/05/29 06:07:25;;;;;;;12.77;3.15;;;;;;;;;;5002240;28;20082;-79
2023/05/29 06:09:51;;;;;;;8.18;3.35;;;;;;;;;;5002129;28;20046;-79
2023/05/29 06:12:17;;;;;;;13.15;3.42;;;;;;;;;;5003262;28;20161;-79
2023/05/29 06:14:43;;;;;;;11.65;3.75;;;;;;;;;;5002079;28;20073;-80
2023/05/29 06:17:10;;;;;;;8.18;3.38;;;;;;;;;;5002043;28;20066;-79
2023/05/29 06:19:36;;;;;;;13.23;3.10;;;;;;;;;;5004304;28;20041;-79
2023/05/29 06:22:02;;;;;;;10.05;3.47;;;;;;;;;;5000489;28;20045;-79
2023/05/29 06:24:28;;;;;;;8.60;3.03;;;;;;;;;;5000967;28;20057;-79
2023/05/29 06:26:54;;;;;;;9.07;3.30;;;;;;;;;;5002293;28;20046;-80
2023/05/29 06:29:20;;;;;;;9.95;2.72;;;;;;;;;;5001234;28;20080;-80
2023/05/29 06:31:47;;;;;;;14.35;3.72;;;;;;;;;;5010247;28;20096;-79
2023/05/29 06:34:13;;;;;;;10.05;3.20;;;;;;;;;;5009975;28;20046;-80
2023/05/29 06:36:40;;;;;;;14.00;3.20;;;;;;;;;;5015025;28;20076;-79
2023/05/29 06:39:06;;;;;;;8.27;2.92;;;;;;;;;;5005447;28;20382;-79
2023/05/29 06:41:32;;;;;;;13.73;3.70;;;;;;;;;;5003543;28;20045;-79
2023/05/29 06:43:58;;;;;;;11.50;3.35;;;;;;;;;;5000086;28;20123;-80
2023/05/29 06:46:24;;;;;;;9.95;3.00;;;;;;;;;;5000308;28;20415;-80
2023/05/29 06:48:50;;;;;;;11.25;4.28;;;;;;;;;;5001243;28;20061;-80
2023/05/29 06:51:16;;;;;;;13.23;3.60;;;;;;;;;;5002255;28;20073;-80
2023/05/29 06:53:42;;;;;;;11.57;3.85;;;;;;;;;;4998960;28;20129;-79
2023/05/29 06:56:08;;;;;;;11.73;3.58;;;;;;;;;;5001616;28;20109;-80
2023/05/29 06:58:35;;;;;;;17.23;4.50;;;;;;;;;;5001137;28;20112;-79
2023/05/29 07:01:01;;;;;;;11.38;4.32;;;;;;;;;;5003713;28;20405;-80
2023/05/29 07:03:27;;;;;;;13.75;4.18;;;;;;;;;;5000030;28;20750;-79
2023/05/29 07:05:54;;;;;;;10.82;3.70;;;;;;;;;;5001684;28;20129;-79
2023/05/29 07:08:20;;;;;;;11.52;4.10;;;;;;;;;;5006625;28;20497;-79
2023/05/29 07:10:48;;;;;;;13.52;3.90;;;;;;;;;;5009710;28;20489;-79
2023/05/29 07:13:15;;;;;;;12.43;4.18;;;;;;;;;;5003855;28;20057;-80
2023/05/29 07:15:41;;;;;;;10.98;4.07;;;;;;;;;;5002984;28;20053;-80
2023/05/29 07:18:07;;;;;;;14.85;4.53;;;;;;;;;;5010548;28;20034;-80
2023/05/29 07:20:33;;;;;;;11.30;4.40;;;;;;;;;;5000531;28;20049;-79
2023/05/29 07:22:59;;;;;;;11.75;4.13;;;;;;;;;;5004699;28;20487;-79
2023/05/29 07:25:26;;;;;;;15.15;4.57;;;;;;;;;;4999339;28;20459;-79
2023/05/29 07:27:52;;;;;;;14.27;4.55;;;;;;;;;;5024979;28;20502;-79
2023/05/29 07:30:18;;;;;;;9.95;4.05;;;;;;;;;;5020734;28;20067;-79
2023/05/29 07:32:44;;;;;;;12.50;4.45;;;;;;;;;;4997982;28;20073;-78
2023/05/29 07:35:10;;;;;;;16.88;4.15;;;;;;;;;;5004324;28;20104;-78
2023/05/29 07:37:36;;;;;;;13.35;4.30;;;;;;;;;;5002887;28;20054;-78
2023/05/29 07:40:05;;;;;;;12.05;3.97;;;;;;;;;;5007610;28;20117;-79
2023/05/29 07:42:32;;;;;;;14.68;4.40;;;;;;;;;;5007822;28;20054;-78
2023/05/29 07:44:58;;;;;;;14.05;3.90;;;;;;;;;;5007684;28;20062;-79
2023/05/29 07:47:24;;;;;;;12.98;4.15;;;;;;;;;;5003340;28;20050;-79
2023/05/29 07:49:51;;;;;;;18.45;5.07;;;;;;;;;;4998248;28;20505;-79
2023/05/29 07:52:18;;;;;;;16.25;3.97;;;;;;;;;;5006606;28;20050;-78
2023/05/29 07:54:44;;;;;;;15.35;4.15;;;;;;;;;;5000593;28;20091;-78
2023/05/29 07:57:10;;;;;;;11.18;3.90;;;;;;;;;;5009297;28;20056;-78
2023/05/29 07:59:36;;;;;;;16.27;4.18;;;;;;;;;;5007833;28;20053;-77
2023/05/29 08:02:03;;;;;;;11.73;3.95;;;;;;;;;;5002634;28;20042;-78
2023/05/29 08:04:30;;;;;;;12.52;4.60;;;;;;;;;;5006084;28;20050;-77
2023/05/29 08:06:56;;;;;;;13.82;4.38;;;;;;;;;;4992168;28;20049;-77
2023/05/29 08:09:22;;;;;;;16.17;4.43;;;;;;;;;;5002865;28;20058;-77
2023/05/29 08:11:48;;;;;;;13.98;4.78;;;;;;;;;;5005639;28;20049;-78
2023/05/29 08:14:15;;;;;;;17.10;4.85;;;;;;;;;;5000170;28;20124;-76
2023/05/29 08:16:42;;;;;;;10.90;3.97;;;;;;;;;;5002791;28;20434;-78
2023/05/29 08:19:08;;;;;;;14.80;4.00;;;;;;;;;;4998950;28;20129;-77
2023/05/29 08:21:34;;;;;;;17.42;4.28;;;;;;;;;;5001186;28;20046;-77
2023/05/29 08:24:00;;;;;;;15.00;4.93;;;;;;;;;;5013525;28;20042;-78
2023/05/29 08:26:26;;;;;;;19.65;5.30;;;;;;;;;;5012679;28;20514;-78
2023/05/29 08:28:52;;;;;;;10.30;4.05;;;;;;;;;;5008782;28;20041;-78
2023/05/29 08:31:19;;;;;;;11.40;4.03;;;;;;;;;;5002625;28;20046;-80
2023/05/29 08:33:45;;;;;;;12.00;3.65;;;;;;;;;;5004482;28;20041;-79
2023/05/29 08:36:11;;;;;;;14.60;4.55;;;;;;;;;;5000347;28;20038;-79
2023/05/29 08:38:37;;;;;;;13.43;4.32;;;;;;;;;;5003725;28;20154;-78
2023/05/29 08:41:05;;;;;;;15.88;4.00;;;;;;;;;;5000551;28;20129;-78
2023/05/29 08:43:31;;;;;;;14.27;4.50;;;;;;;;;;5003847;28;20234;-78
2023/05/29 08:46:01;;;;;;;10.30;3.60;;;;;;;;;;4998157;28;20050;-78
2023/05/29 08:48:28;;;;;;;17.02;4.18;;;;;;;;;;5004575;28;20124;-78
2023/05/29 08:50:55;;;;;;;11.35;4.05;;;;;;;;;;5002286;28;20049;-78
2023/05/29 08:53:22;;;;;;;11.65;4.40;;;;;;;;;;4998531;28;20050;-78
2023/05/29 08:55:50;;;;;;;12.02;3.60;;;;;;;;;;5002260;28;20045;-78
2023/05/29 08:58:17;;;;;;;12.73;4.18;;;;;;;;;;5002235;28;20148;-79
2023/05/29 09:00:43;;;;;;;13.07;3.97;;;;;;;;;;5002765;28;20136;-78
2023/05/29 09:03:09;;;;;;;14.43;4.18;;;;;;;;;;5003185;28;20050;-78
2023/05/29 09:05:40;;;;;;;10.68;4.25;;;;;;;;;;5001709;28;20038;-77
2023/05/29 09:08:07;;;;;;;11.40;3.75;;;;;;;;;;5003119;28;20044;-77
2023/05/29 09:10:33;;;;;;;12.18;3.90;;;;;;;;;;4998164;28;20398;-78
2023/05/29 09:13:00;;;;;;;14.55;4.10;;;;;;;;;;5000757;28;20060;-77
2023/05/29 09:15:26;;;;;;;14.18;3.80;;;;;;;;;;4998847;28;20131;-78
2023/05/29 09:17:53;;;;;;;15.25;3.67;;;;;;;;;;5005965;28;20045;-78
2023/05/29 09:20:22;;;;;;;13.20;4.60;;;;;;;;;;5001293;28;20050;-78
2023/05/29 09:22:58;;;;;;;14.50;4.30;;;;;;;;;;5002657;28;20567;-78
2023/05/29 09:25:26;;;;;;;11.55;4.60;;;;;;;;;;5000396;28;20060;-77
2023/05/29 09:27:56;;;;;;;15.25;4.72;;;;;;;;;;5000551;28;20107;-78
2023/05/29 09:30:38;;;;;;;11.70;4.65;;;;;;;;;;5001770;28;20041;-78
2023/05/29 09:33:05;;;;;;;13.80;4.15;;;;;;;;;;4998144;28;20058;-78
2023/05/29 09:35:35;;;;;;;13.48;4.25;;;;;;;;;;5000294;28;20050;-77
2023/05/29 09:38:01;;;;;;;16.52;4.63;;;;;;;;;;5003450;28;20046;-77
2023/05/29 09:40:31;;;;;;;14.77;5.32;;;;;;;;;;5002470;28;20042;-77
2023/05/29 09:43:03;;;;;;;14.45;3.95;;;;;;;;;;5005621;28;20050;-78
2023/05/29 09:45:30;;;;;;;16.25;4.00;;;;;;;;;;4993718;28;20297;-78
2023/05/29 09:47:56;;;;;;;12.73;3.90;;;;;;;;;;5005507;28;20064;-78
2023/05/29 09:50:25;;;;;;;12.20;4.45;;;;;;;;;;5008210;28;20050;-78
2023/05/29 09:52:53;;;;;;;15.02;4.18;;;;;;;;;;5012492;28;20351;-78
2023/05/29 09:55:25;;;;;;;12.05;4.35;;;;;;;;;;5009382;28;20050;-77
2023/05/29 09:57:54;;;;;;;12.00;4.10;;;;;;;;;;5002721;28;20070;-78
2023/05/29 10:00:21;;;;;;;13.73;4.00;;;;;;;;;;5000864;28;20054;-78
2023/05/29 10:02:48;;;;;;;14.07;4.57;;;;;;;;;;5012648;28;20220;-78
2023/05/29 10:05:17;;;;;;;14.00;4.28;;;;;;;;;;5005955;28;20053;-77
2023/05/29 10:07:47;;;;;;;14.10;4.20;;;;;;;;;;5008922;28;20038;-77
2023/05/29 10:10:14;;;;;;;11.88;4.03;;;;;;;;;;5000527;28;20464;-77
2023/05/29 10:12:44;;;;;;;12.95;3.95;;;;;;;;;;5001392;28;20847;-77
2023/05/29 10:15:14;;;;;;;14.43;4.35;;;;;;;;;;4997188;28;20046;-78
2023/05/29 10:17:44;;;;;;;12.75;4.28;;;;;;;;;;5004705;28;20053;-78
2023/05/29 10:20:15;;;;;;;11.77;4.00;;;;;;;;;;5005005;28;20809;-78
2023/05/29 10:22:45;;;;;;;10.70;3.85;;;;;;;;;;5012452;28;20078;-77
2023/05/29 10:25:11;;;;;;;11.50;3.75;;;;;;;;;;4998238;28;20393;-77
2023/05/29 10:27:38;;;;;;;12.93;4.10;;;;;;;;;;5005720;28;20049;-77
2023/05/29 10:30:16;;;;;;;15.52;3.90;;;;;;;;;;5004073;28;20041;-77
2023/05/29 10:33:03;;;;;;;13.45;4.05;;;;;;;;;;5006710;28;20560;-78
2023/05/29 10:35:38;;;;;;;15.93;4.40;;;;;;;;;;5003912;28;20084;-76
2023/05/29 10:38:12;;;;;;;10.98;3.75;;;;;;;;;;5003256;28;20050;-77
2023/05/29 10:40:38;;;;;;;11.73;4.00;;;;;;;;;;4999263;28;20463;-77
2023/05/29 10:43:08;;;;;;;11.88;4.18;;;;;;;;;;5005451;28;20034;-77
2023/05/29 10:45:40;;;;;;;10.43;4.20;;;;;;;;;;5005728;28;20076;-77
2023/05/29 10:48:13;;;;;;;15.00;4.20;;;;;;;;;;5004698;28;20564;-78
2023/05/29 10:50:41;;;;;;;11.10;3.70;;;;;;;;;;5003771;28;20127;-77
2023/05/29 10:53:10;;;;;;;11.82;3.80;;;;;;;;;;5008344;28;20176;-77
2023/05/29 10:55:39;;;;;;;16.35;3.85;;;;;;;;;;5011185;28;20070;-76
2023/05/29 10:58:09;;;;;;;12.13;4.10;;;;;;;;;;5007440;28;20038;-77
2023/05/29 11:00:43;;;;;;;11.05;3.80;;;;;;;;;;5007683;28;20046;-77
2023/05/29 11:03:10;;;;;;;17.15;4.35;;;;;;;;;;5006629;28;20058;-77
2023/05/29 11:05:56;;;;;;;14.65;3.90;;;;;;;;;;5006834;28;20042;-77
2023/05/29 11:08:30;;;;;;;14.57;3.90;;;;;;;;;;4997256;28;20144;-76
2023/05/29 11:10:57;;;;;;;9.85;4.07;;;;;;;;;;4997783;28;20110;-77
2023/05/29 11:13:25;;;;;;;12.60;3.90;;;;;;;;;;5004494;28;20587;-77
2023/05/29 11:16:09;;;;;;;12.50;4.05;;;;;;;;;;5007436;28;20476;-78
2023/05/29 11:18:42;;;;;;;12.13;3.97;;;;;;;;;;5008352;28;20046;-78
2023/05/29 11:21:16;;;;;;;15.23;4.45;;;;;;;;;;5009924;28;20045;-75
2023/05/29 11:23:43;;;;;;;14.73;3.42;;;;;;;;;;4998325;28;20461;-76
2023/05/29 11:26:09;;;;;;;14.25;3.95;;;;;;;;;;5002766;28;20081;-75
2023/05/29 11:28:36;;;;;;;11.05;3.85;;;;;;;;;;5009165;28;20132;-76
2023/05/29 11:31:08;;;;;;;11.18;3.88;;;;;;;;;;5005011;28;20050;-77
2023/05/29 11:33:36;;;;;;;12.90;3.95;;;;;;;;;;4997550;28;20046;-77
2023/05/29 11:36:02;;;;;;;13.77;3.65;;;;;;;;;;5006413;28;20490;-78
2023/05/29 11:38:28;;;;;;;12.48;4.00;;;;;;;;;;5001323;28;20051;-80
2023/05/29 11:40:55;;;;;;;9.43;3.35;;;;;;;;;;5007366;28;20153;-82
2023/05/29 11:43:21;;;;;;;9.55;3.42;;;;;;;;;;4990700;28;20057;-80
2023/05/29 11:45:47;;;;;;;9.95;3.92;;;;;;;;;;4999463;28;20517;-77
2023/05/29 11:48:14;;;;;;;9.90;3.22;;;;;;;;;;5010584;28;20050;-76
2023/05/29 11:50:40;;;;;;;11.43;3.63;;;;;;;;;;5009825;28;20115;-74
2023/05/29 11:53:08;;;;;;;11.10;4.07;;;;;;;;;;5005766;28;20057;-75
2023/05/29 11:55:34;;;;;;;12.05;3.83;;;;;;;;;;5001488;28;20042;-77
2023/05/29 11:58:01;;;;;;;11.73;3.53;;;;;;;;;;5011809;28;20113;-76
2023/05/29 12:00:31;;;;;;;14.25;3.60;;;;;;;;;;5006676;28;20425;-77
2023/05/29 12:02:58;;;;;;;13.10;4.35;;;;;;;;;;5013060;28;20050;-78
2023/05/29 12:05:24;;;;;;;11.43;3.40;;;;;;;;;;5008794;28;20378;-74
2023/05/29 12:07:50;;;;;;;7.20;3.20;;;;;;;;;;5011494;28;20501;-77
2023/05/29 12:10:17;;;;;;;15.48;3.78;;;;;;;;;;5005013;28;20486;-78
2023/05/29 12:12:47;;;;;;;11.52;3.17;;;;;;;;;;5000387;28;20038;-78
2023/05/29 12:15:13;;;;;;;12.35;4.10;;;;;;;;;;5011352;28;20053;-77
2023/05/29 12:17:40;;;;;;;10.15;3.75;;;;;;;;;;5007298;28;20065;-78
2023/05/29 12:20:09;;;;;;;12.60;4.05;;;;;;;;;;5007055;28;20049;-76
2023/05/29 12:22:35;;;;;;;12.57;3.72;;;;;;;;;;5012242;28;20062;-74
2023/05/29 12:25:11;;;;;;;13.27;3.55;;;;;;;;;;5006473;28;20046;-78
2023/05/29 12:27:42;;;;;;;15.23;4.15;;;;;;;;;;5009409;28;20379;-79
2023/05/29 12:30:10;;;;;;;10.93;4.05;;;;;;;;;;5013611;28;20103;-78
2023/05/29 12:32:40;;;;;;;7.75;3.25;;;;;;;;;;5007483;28;20050;-78
2023/05/29 12:35:28;;;;;;;13.20;4.70;;;;;;;;;;5009524;28;20046;-78
2023/05/29 12:37:57;;;;;;;8.20;3.40;;;;;;;;;;5014191;28;20057;-78
2023/05/29 12:40:24;;;;;;;14.27;3.75;;;;;;;;;;5007301;28;20390;-78
2023/05/29 12:43:17;;;;;;;13.18;3.88;;;;;;;;;;5000623;28;20108;-78
2023/05/29 12:45:43;;;;;;;11.32;3.17;;;;;;;;;;4995298;28;21726;-78
2023/05/29 12:48:10;;;;;;;11.32;3.75;;;;;;;;;;5014261;28;20053;-78
2023/05/29 12:50:41;;;;;;;16.25;4.05;;;;;;;;;;5005725;28;20749;-78
2023/05/29 12:53:11;;;;;;;11.80;3.17;;;;;;;;;;5014108;28;20045;-78
2023/05/29 12:55:42;;;;;;;9.93;3.60;;;;;;;;;;5009438;28;20172;-78
2023/05/29 12:58:09;;;;;;;10.85;3.60;;;;;;;;;;5011178;28;20054;-79
2023/05/29 13:00:36;;;;;;;11.07;3.65;;;;;;;;;;5010206;28;20497;-79
2023/05/29 13:03:02;;;;;;;13.02;3.95;;;;;;;;;;5008974;28;20042;-79
2023/05/29 13:05:28;;;;;;;10.65;3.45;;;;;;;;;;5013433;28;20045;-79
2023/05/29 13:07:55;;;;;;;11.73;3.88;;;;;;;;;;5009906;28;20057;-79
2023/05/29 13:10:21;;;;;;;10.18;3.33;;;;;;;;;;5006029;28;20093;-80
2023/05/29 13:12:53;;;;;;;11.23;3.40;;;;;;;;;;5011844;28;20052;-79
2023/05/29 13:15:20;;;;;;;11.55;3.67;;;;;;;;;;5010273;28;20068;-78
2023/05/29 13:17:46;;;;;;;16.08;3.85;;;;;;;;;;5009339;28;20042;-79
2023/05/29 13:20:12;;;;;;;10.05;3.60;;;;;;;;;;5007631;28;20445;-79
2023/05/29 13:22:42;;;;;;;10.57;3.33;;;;;;;;;;5023621;28;20482;-80
2023/05/29 13:25:09;;;;;;;10.00;2.80;;;;;;;;;;5002019;28;20038;-80
2023/05/29 13:27:36;;;;;;;10.40;3.15;;;;;;;;;;5012379;28;20042;-80
2023/05/29 13:30:03;;;;;;;11.20;3.83;;;;;;;;;;5012263;28;20057;-79
2023/05/29 13:32:29;;;;;;;13.77;3.00;;;;;;;;;;5005126;28;20406;-80
2023/05/29 13:34:55;;;;;;;8.52;3.08;;;;;;;;;;5009206;28;20096;-79
2023/05/29 13:37:21;;;;;;;8.13;3.30;;;;;;;;;;5009000;28;20552;-79
2023/05/29 13:39:47;;;;;;;9.65;3.30;;;;;;;;;;5008440;28;20050;-79
2023/05/29 13:42:13;;;;;;;9.75;3.70;;;;;;;;;;5008987;28;20042;-78
2023/05/29 13:44:39;;;;;;;11.10;3.50;;;;;;;;;;5011537;28;20186;-79
2023/05/29 13:47:07;;;;;;;10.13;3.80;;;;;;;;;;5004295;28;20141;-80
2023/05/29 13:49:33;;;;;;;9.80;3.17;;;;;;;;;;5009838;28;20524;-79
2023/05/29 13:51:59;;;;;;;8.02;3.55;;;;;;;;;;5011670;28;20042;-79
2023/05/29 13:54:27;;;;;;;8.10;2.65;;;;;;;;;;5010582;28;20494;-79
2023/05/29 13:56:53;;;;;;;7.15;2.80;;;;;;;;;;5004610;28;20075;-80
2023/05/29 13:59:19;;;;;;;8.32;3.30;;;;;;;;;;5010189;28;20210;-79
2023/05/29 14:01:45;;;;;;;9.35;3.42;;;;;;;;;;5009597;28;20042;-79
2023/05/29 14:04:11;;;;;;;10.82;2.92;;;;;;;;;;5011625;28;20046;-78
2023/05/29 14:06:37;;;;;;;7.90;3.25;;;;;;;;;;5009704;28;20058;-78
2023/05/29 14:09:03;;;;;;;10.27;3.35;;;;;;;;;;5011770;28;20504;-79
2023/05/29 14:11:29;;;;;;;9.07;2.70;;;;;;;;;;5003332;28;20130;-79
2023/05/29 14:13:55;;;;;;;9.88;3.25;;;;;;;;;;5007568;28;20112;-78
2023/05/29 14:16:21;;;;;;;10.05;3.17;;;;;;;;;;5005961;28;20049;-79
2023/05/29 14:18:48;;;;;;;10.05;3.28;;;;;;;;;;5004187;28;20046;-80
2023/05/29 14:21:14;;;;;;;5.40;2.90;;;;;;;;;;4992110;28;20532;-79
2023/05/29 14:23:40;;;;;;;9.05;3.10;;;;;;;;;;5002151;28;20046;-79
2023/05/29 14:26:07;;;;;;;8.38;2.92;;;;;;;;;;5008101;28;20050;-78
2023/05/29 14:28:33;;;;;;;6.28;2.92;;;;;;;;;;5008844;28;20046;-78
2023/05/29 14:30:59;;;;;;;8.40;3.15;;;;;;;;;;5003722;28;20053;-78
2023/05/29 14:33:25;;;;;;;7.95;3.03;;;;;;;;;;5005952;28;20057;-74
2023/05/29 14:35:52;;;;;;;10.52;2.83;;;;;;;;;;5000579;28;20494;-78